createdAt,value
2022-10-05T00:00:47.238Z,10.17
2022-10-05T00:03:16.699Z,10.53
2022-10-05T00:05:46.878Z,10.33
2022-10-05T00:08:18.450Z,9.87
2022-10-05T00:10:47.299Z,10.13
2022-10-05T00:13:17.210Z,10.40
2022-10-05T00:15:45.575Z,10.17
2022-10-05T00:18:18.156Z,10.07
2022-10-05T00:20:47.608Z,10.13
2022-10-05T00:23:19.448Z,10.23
2022-10-05T00:25:48.030Z,10.00
2022-10-05T00:28:19.816Z,10.23
2022-10-05T00:30:47.999Z,10.17
2022-10-05T00:33:17.486Z,10.67
2022-10-05T00:35:45.583Z,9.80
2022-10-05T00:38:13.787Z,9.57
2022-10-05T00:40:58.239Z,9.93
2022-10-05T00:43:42.024Z,10.00
2022-10-05T00:46:16.508Z,10.50
2022-10-05T00:48:54.680Z,9.83
2022-10-05T00:51:26.943Z,9.00
2022-10-05T00:54:03.793Z,9.23
2022-10-05T00:56:50.214Z,9.33
2022-10-05T00:59:29.642Z,9.17
2022-10-05T01:02:03.865Z,8.63
2022-10-05T01:04:41.507Z,9.30
2022-10-05T01:07:18.938Z,9.10
2022-10-05T01:09:55.200Z,8.70
2022-10-05T01:12:30.761Z,8.07
2022-10-05T01:15:06.307Z,9.00
2022-10-05T01:17:42.101Z,8.37
2022-10-05T01:20:24.557Z,8.77
2022-10-05T01:23:23.243Z,9.80
2022-10-05T01:26:02.929Z,9.60
2022-10-05T01:28:36.589Z,9.20
2022-10-05T01:31:10.686Z,9.50
2022-10-05T01:33:46.639Z,9.80
2022-10-05T01:36:22.761Z,10.13
2022-10-05T01:38:58.774Z,9.10
2022-10-05T01:41:33.678Z,9.57
2022-10-05T01:44:08.828Z,8.70
2022-10-05T01:46:43.267Z,9.73
2022-10-05T01:49:33.179Z,9.90
2022-10-05T01:52:15.822Z,8.50
2022-10-05T01:54:58.815Z,9.00
2022-10-05T01:57:38.618Z,8.97
2022-10-05T02:00:10.320Z,9.77
2022-10-05T02:02:48.522Z,8.57
2022-10-05T02:05:22.170Z,8.83
2022-10-05T02:07:55.428Z,9.00
2022-10-05T02:10:28.300Z,8.80
2022-10-05T02:13:01.949Z,8.93
2022-10-05T02:15:41.638Z,9.10
2022-10-05T02:18:14.655Z,9.57
2022-10-05T02:20:44.830Z,9.07
2022-10-05T02:23:18.997Z,9.67
2022-10-05T02:25:50.176Z,10.17
2022-10-05T02:28:24.694Z,9.80
2022-10-05T02:30:58.779Z,9.73
2022-10-05T02:33:29.554Z,10.33
2022-10-05T02:36:03.616Z,10.00
2022-10-05T02:38:41.132Z,10.57
2022-10-05T02:41:21.583Z,10.07
2022-10-05T02:43:57.561Z,9.70
2022-10-05T02:46:33.863Z,10.23
2022-10-05T02:49:15.513Z,9.77
2022-10-05T02:51:52.135Z,10.20
2022-10-05T02:54:33.435Z,9.57
2022-10-05T02:57:06.002Z,9.80
2022-10-05T02:59:40.041Z,10.43
2022-10-05T03:02:19.812Z,10.07
2022-10-05T03:04:57.199Z,10.20
2022-10-05T03:07:30.526Z,9.87
2022-10-05T03:10:08.780Z,10.57
2022-10-05T03:12:48.689Z,10.20
2022-10-05T03:15:32.401Z,10.00
2022-10-05T03:18:10.141Z,10.10
2022-10-05T03:20:46.232Z,10.43
2022-10-05T03:23:25.388Z,10.33
2022-10-05T03:26:11.539Z,9.83
2022-10-05T03:28:51.813Z,10.03
2022-10-05T03:31:26.698Z,10.17
2022-10-05T03:34:01.305Z,10.50
2022-10-05T03:36:39.577Z,10.40
2022-10-05T03:39:16.086Z,10.93
2022-10-05T03:41:51.415Z,11.40
2022-10-05T03:44:36.859Z,10.73
2022-10-05T03:47:18.718Z,10.60
2022-10-05T03:50:05.680Z,11.33
2022-10-05T03:52:39.288Z,11.07
2022-10-05T03:55:17.843Z,10.70
2022-10-05T03:57:48.559Z,11.10
2022-10-05T04:00:20.611Z,11.53
2022-10-05T04:03:01.591Z,10.53
2022-10-05T04:05:36.610Z,11.70
2022-10-05T04:08:11.038Z,11.43
2022-10-05T04:10:44.602Z,10.70
2022-10-05T04:13:21.443Z,10.70
2022-10-05T04:15:58.394Z,11.20
2022-10-05T04:18:31.024Z,10.60
2022-10-05T04:21:05.799Z,10.23
2022-10-05T04:23:43.864Z,10.27
2022-10-05T04:26:15.918Z,10.53
2022-10-05T04:28:53.692Z,9.43
2022-10-05T04:31:38.266Z,9.97
2022-10-05T04:34:16.680Z,9.60
2022-10-05T04:36:52.007Z,10.00
2022-10-05T04:39:28.746Z,10.67
2022-10-05T04:42:07.572Z,9.13
2022-10-05T04:44:58.937Z,10.40
2022-10-05T04:47:57.096Z,10.40
2022-10-05T04:50:37.867Z,9.07
2022-10-05T04:53:22.817Z,9.17
2022-10-05T04:55:58.099Z,8.87
2022-10-05T04:58:42.512Z,9.17
2022-10-05T05:01:25.896Z,9.30
2022-10-05T05:04:29.814Z,9.97
2022-10-05T05:07:05.689Z,9.40
2022-10-05T05:10:13.396Z,9.87
2022-10-05T05:12:54.361Z,10.30
2022-10-05T05:15:33.611Z,9.90
2022-10-05T05:18:39.494Z,9.33
2022-10-05T05:21:16.661Z,9.13
2022-10-05T05:23:51.149Z,9.23
2022-10-05T05:26:26.926Z,10.17
2022-10-05T05:29:05.476Z,9.23
2022-10-05T05:31:42.061Z,9.30
2022-10-05T05:34:34.179Z,9.60
2022-10-05T05:37:07.184Z,8.30
2022-10-05T05:39:42.326Z,8.40
2022-10-05T05:42:22.263Z,9.30
2022-10-05T05:44:53.862Z,9.23
2022-10-05T05:47:31.183Z,9.17
2022-10-05T05:50:12.263Z,8.47
2022-10-05T05:52:45.408Z,8.90
2022-10-05T05:55:18.510Z,9.30
2022-10-05T05:57:54.241Z,8.80
2022-10-05T06:00:25.468Z,8.50
2022-10-05T06:03:04.998Z,8.67
2022-10-05T06:05:39.356Z,8.00
2022-10-05T06:08:16.694Z,8.17
2022-10-05T06:10:53.644Z,7.90
2022-10-05T06:13:27.877Z,8.53
2022-10-05T06:16:01.668Z,8.13
2022-10-05T06:18:33.582Z,8.30
2022-10-05T06:21:05.786Z,8.07
2022-10-05T06:23:41.130Z,8.13
2022-10-05T06:26:18.313Z,8.10
2022-10-05T06:28:53.056Z,7.70
2022-10-05T06:31:36.633Z,7.30
2022-10-05T06:34:17.170Z,7.60
2022-10-05T06:36:50.451Z,7.40
2022-10-05T06:39:50.430Z,7.60
2022-10-05T06:42:35.331Z,7.73
2022-10-05T06:45:33.118Z,7.73
2022-10-05T06:48:15.878Z,6.87
2022-10-05T06:51:11.002Z,7.10
2022-10-05T06:53:53.759Z,7.13
2022-10-05T06:56:29.262Z,6.43
2022-10-05T06:59:01.822Z,7.50
2022-10-05T07:01:49.270Z,6.60
2022-10-05T07:04:45.900Z,6.97
2022-10-05T07:07:22.429Z,6.83
2022-10-05T07:10:03.426Z,6.30
2022-10-05T07:12:45.086Z,6.47
2022-10-05T07:15:30.546Z,5.70
2022-10-05T07:18:19.003Z,6.60
2022-10-05T07:20:54.350Z,6.30
2022-10-05T07:23:30.576Z,6.67
2022-10-05T07:26:06.439Z,6.50
2022-10-05T07:28:44.627Z,7.00
2022-10-05T07:31:19.599Z,6.03
2022-10-05T07:33:59.318Z,6.60
2022-10-05T07:36:54.741Z,5.50
2022-10-05T07:39:55.354Z,5.77
2022-10-05T07:42:31.227Z,5.90
2022-10-05T07:45:10.527Z,5.80
2022-10-05T07:47:44.681Z,5.23
2022-10-05T07:50:22.028Z,5.17
2022-10-05T07:52:55.875Z,5.20
2022-10-05T07:55:27.098Z,5.50
2022-10-05T07:58:06.048Z,5.30
2022-10-05T08:00:57.470Z,5.10
2022-10-05T08:03:35.842Z,4.67
2022-10-05T08:06:07.427Z,4.93
2022-10-05T08:08:46.181Z,4.87
2022-10-05T08:11:18.413Z,5.13
2022-10-05T08:13:54.127Z,5.07
2022-10-05T08:16:25.299Z,4.37
2022-10-05T08:19:00.606Z,4.37
2022-10-05T08:21:34.949Z,4.57
2022-10-05T08:24:08.357Z,4.30
2022-10-05T08:26:45.764Z,4.40
2022-10-05T08:29:21.223Z,4.13
2022-10-05T08:31:53.245Z,4.60
2022-10-05T08:34:27.504Z,4.33
2022-10-05T08:37:03.192Z,4.40
2022-10-05T08:39:35.670Z,3.87
2022-10-05T08:42:46.581Z,4.33
2022-10-05T08:45:46.655Z,3.83
2022-10-05T08:48:58.544Z,4.60
2022-10-05T08:51:37.479Z,3.53
2022-10-05T08:54:29.973Z,4.27
2022-10-05T08:57:17.877Z,3.87
2022-10-05T09:00:09.230Z,4.30
2022-10-05T09:03:05.772Z,3.93
2022-10-05T09:06:07.097Z,4.00
2022-10-05T09:09:17.019Z,3.23
2022-10-05T09:12:02.203Z,3.80
2022-10-05T09:14:40.253Z,3.37
2022-10-05T09:17:28.218Z,3.60
2022-10-05T09:20:18.134Z,3.50
2022-10-05T09:23:02.974Z,3.60
2022-10-05T09:25:44.141Z,3.53
2022-10-05T09:28:24.835Z,3.63
2022-10-05T09:31:17.861Z,3.90
2022-10-05T09:34:09.906Z,3.47
2022-10-05T09:37:27.085Z,4.03
2022-10-05T09:40:31.399Z,3.70
2022-10-05T09:43:12.073Z,3.20
2022-10-05T09:46:03.959Z,3.70
2022-10-05T09:49:15.444Z,3.87
2022-10-05T09:52:18.768Z,3.30
2022-10-05T09:55:21.265Z,3.13
2022-10-05T09:58:30.400Z,2.90
2022-10-05T10:01:29.134Z,3.50
2022-10-05T10:04:29.736Z,3.07
2022-10-05T10:07:37.807Z,3.90
2022-10-05T10:10:44.014Z,3.80
2022-10-05T10:13:37.877Z,3.50
2022-10-05T10:16:30.719Z,3.87
2022-10-05T10:19:13.888Z,3.07
2022-10-05T10:22:11.244Z,3.13
2022-10-05T10:25:21.246Z,3.03
2022-10-05T10:28:18.015Z,3.40
2022-10-05T10:31:01.229Z,3.40
2022-10-05T10:33:57.193Z,2.73
2022-10-05T10:36:44.756Z,3.30
2022-10-05T10:39:19.800Z,2.93
2022-10-05T10:42:12.771Z,3.10
2022-10-05T10:44:59.263Z,3.10
2022-10-05T10:47:41.238Z,3.13
2022-10-05T10:50:33.187Z,3.10
2022-10-05T10:53:18.691Z,3.03
2022-10-05T10:55:55.345Z,3.60
2022-10-05T10:58:55.387Z,3.27
2022-10-05T11:01:35.570Z,2.90
2022-10-05T11:04:29.055Z,2.97
2022-10-05T11:07:23.056Z,2.80
2022-10-05T11:10:18.218Z,2.70
2022-10-05T11:13:16.510Z,2.70
2022-10-05T11:16:08.827Z,3.10
2022-10-05T11:18:52.715Z,3.00
2022-10-05T11:21:30.381Z,2.70
2022-10-05T11:24:28.710Z,3.07
2022-10-05T11:27:10.091Z,3.23
2022-10-05T11:30:15.969Z,3.30
2022-10-05T11:33:42.850Z,3.20
2022-10-05T11:36:37.737Z,3.10
2022-10-05T11:39:30.324Z,3.53
2022-10-05T11:42:26.820Z,2.73
2022-10-05T11:45:27.032Z,3.03
2022-10-05T11:48:25.895Z,3.40
2022-10-05T11:51:18.232Z,3.30
2022-10-05T11:53:56.652Z,2.60
2022-10-05T11:56:35.790Z,3.10
2022-10-05T11:59:13.184Z,3.00
2022-10-05T12:01:50.112Z,3.30
2022-10-05T12:04:25.505Z,2.93
2022-10-05T12:07:11.323Z,3.00
2022-10-05T12:10:11.332Z,3.03
2022-10-05T12:12:48.934Z,3.20
2022-10-05T12:15:26.177Z,3.70
2022-10-05T12:17:59.055Z,3.20
2022-10-05T12:20:32.919Z,4.27
2022-10-05T12:23:07.263Z,4.00
2022-10-05T12:25:40.769Z,3.80
2022-10-05T12:28:16.311Z,3.57
2022-10-05T12:31:14.580Z,3.53
2022-10-05T12:33:49.326Z,3.50
2022-10-05T12:36:24.768Z,3.97
2022-10-05T12:39:05.058Z,3.70
2022-10-05T12:41:40.404Z,3.50
2022-10-05T12:44:18.716Z,3.53
2022-10-05T12:46:57.405Z,3.57
2022-10-05T12:49:50.608Z,4.70
2022-10-05T12:52:44.432Z,4.00
2022-10-05T12:55:20.254Z,3.83
2022-10-05T12:57:57.652Z,4.13
2022-10-05T13:00:27.605Z,3.90
2022-10-05T13:03:00.560Z,3.80
2022-10-05T13:05:33.071Z,4.33
2022-10-05T13:08:12.894Z,4.13
2022-10-05T13:10:47.196Z,4.10
2022-10-05T13:13:44.134Z,4.40
2022-10-05T13:16:29.135Z,4.17
2022-10-05T13:19:23.198Z,4.07
2022-10-05T13:22:10.692Z,3.50
2022-10-05T13:24:46.199Z,4.40
2022-10-05T13:27:19.256Z,4.40
2022-10-05T13:29:54.462Z,4.20
2022-10-05T13:32:26.812Z,4.40
2022-10-05T13:35:05.729Z,4.13
2022-10-05T13:37:47.740Z,3.77
2022-10-05T13:40:25.681Z,3.90
2022-10-05T13:43:03.986Z,3.47
2022-10-05T13:45:40.999Z,3.83
2022-10-05T13:48:23.227Z,3.53
2022-10-05T13:51:03.848Z,3.90
2022-10-05T13:53:41.594Z,3.97
2022-10-05T13:56:18.971Z,4.07
2022-10-05T13:58:51.870Z,3.97
2022-10-05T14:01:28.203Z,3.73
2022-10-05T14:04:17.883Z,3.80
2022-10-05T14:06:46.645Z,3.73
2022-10-05T14:09:29.051Z,3.67
2022-10-05T14:12:14.328Z,3.83
2022-10-05T14:14:48.943Z,3.93
2022-10-05T14:17:37.817Z,3.73
2022-10-05T14:20:22.762Z,3.83
2022-10-05T14:22:55.774Z,4.13
2022-10-05T14:25:24.151Z,3.70
2022-10-05T14:27:58.669Z,3.70
2022-10-05T14:30:28.398Z,3.73
2022-10-05T14:32:59.534Z,3.97
2022-10-05T14:35:31.341Z,4.13
2022-10-05T14:38:02.420Z,3.70
2022-10-05T14:40:33.619Z,3.90
2022-10-05T14:43:18.221Z,4.27
2022-10-05T14:45:57.153Z,4.20
2022-10-05T14:48:27.986Z,4.50
2022-10-05T14:50:59.432Z,4.27
2022-10-05T14:53:39.773Z,4.27
2022-10-05T14:56:35.365Z,4.57
2022-10-05T14:59:25.009Z,4.47
2022-10-05T15:01:57.539Z,4.37
2022-10-05T15:04:36.463Z,4.30
2022-10-05T15:07:19.353Z,4.43
2022-10-05T15:10:02.889Z,4.27
2022-10-05T15:12:33.341Z,4.47
2022-10-05T15:15:07.542Z,3.80
2022-10-05T15:17:42.730Z,4.13
2022-10-05T15:20:24.511Z,4.30
2022-10-05T15:23:00.384Z,3.93
2022-10-05T15:25:37.236Z,4.33
2022-10-05T15:28:12.223Z,4.87
2022-10-05T15:30:48.825Z,4.40
2022-10-05T15:33:24.458Z,4.40
2022-10-05T15:36:09.460Z,4.13
2022-10-05T15:38:50.308Z,4.80
2022-10-05T15:41:25.078Z,4.90
2022-10-05T15:44:09.806Z,5.87
2022-10-05T15:46:46.559Z,6.80
2022-10-05T15:49:25.530Z,6.20
2022-10-05T15:52:03.259Z,6.13
2022-10-05T15:54:56.144Z,6.40
2022-10-05T15:57:36.532Z,7.07
2022-10-05T16:00:11.837Z,8.00
2022-10-05T16:02:45.225Z,7.57
2022-10-05T16:05:41.088Z,6.50
2022-10-05T16:08:33.116Z,7.40
2022-10-05T16:11:04.470Z,8.10
2022-10-05T16:13:41.989Z,7.50
2022-10-05T16:16:21.781Z,7.83
2022-10-05T16:19:01.095Z,7.50
2022-10-05T16:21:44.228Z,6.67
2022-10-05T16:24:25.832Z,6.73
2022-10-05T16:27:01.165Z,6.50
2022-10-05T16:29:40.295Z,5.63
2022-10-05T16:32:15.105Z,6.00
2022-10-05T16:34:57.760Z,6.10
2022-10-05T16:37:37.839Z,5.80
2022-10-05T16:40:13.651Z,5.77
2022-10-05T16:42:55.155Z,6.63
2022-10-05T16:45:45.677Z,6.97
2022-10-05T16:48:21.082Z,6.47
2022-10-05T16:51:02.913Z,9.00
2022-10-05T16:53:37.575Z,14.43
2022-10-05T16:56:11.079Z,12.97
2022-10-05T16:58:55.007Z,10.43
2022-10-05T17:01:42.176Z,8.87
2022-10-05T17:04:24.697Z,9.47
2022-10-05T17:07:08.444Z,8.63
2022-10-05T17:10:05.986Z,8.83
2022-10-05T17:12:46.762Z,7.40
2022-10-05T17:15:39.621Z,8.40
2022-10-05T17:18:27.400Z,7.33
2022-10-05T17:21:07.804Z,6.20
2022-10-05T17:23:55.317Z,7.30
2022-10-05T17:26:56.346Z,7.63
2022-10-05T17:29:30.217Z,6.90
2022-10-05T17:32:13.053Z,8.20
2022-10-05T17:35:18.225Z,9.50
2022-10-05T17:38:17.258Z,10.73
2022-10-05T17:41:06.250Z,10.17
2022-10-05T17:43:35.095Z,8.60
2022-10-05T17:46:05.919Z,8.87
2022-10-05T17:49:08.433Z,8.03
2022-10-05T17:52:17.813Z,7.60
2022-10-05T17:55:28.166Z,7.47
2022-10-05T17:57:59.823Z,7.80
2022-10-05T18:01:07.096Z,8.17
2022-10-05T18:03:44.627Z,7.80
2022-10-05T18:06:47.583Z,8.20
2022-10-05T18:09:52.542Z,15.70
2022-10-05T18:12:39.920Z,17.77
2022-10-05T18:15:44.125Z,16.50
2022-10-05T18:18:56.589Z,18.57
2022-10-05T18:21:40.048Z,17.07
2022-10-05T18:24:53.292Z,13.70
2022-10-05T18:27:51.164Z,14.00
2022-10-05T18:30:22.539Z,15.40
2022-10-05T18:33:39.405Z,13.50
2022-10-05T18:36:20.634Z,16.93
2022-10-05T18:38:56.361Z,16.90
2022-10-05T18:41:37.421Z,15.20
2022-10-05T18:44:33.001Z,13.47
2022-10-05T18:47:09.874Z,12.97
2022-10-05T18:50:04.990Z,11.13
2022-10-05T18:52:45.563Z,12.93
2022-10-05T18:55:25.791Z,13.40
2022-10-05T18:58:07.003Z,12.70
2022-10-05T19:01:01.192Z,13.57
2022-10-05T19:03:36.659Z,12.03
2022-10-05T19:06:13.427Z,12.27
2022-10-05T19:08:51.971Z,9.90
2022-10-05T19:11:27.888Z,11.23
2022-10-05T19:14:05.510Z,9.37
2022-10-05T19:17:01.527Z,8.77
2022-10-05T19:19:48.609Z,8.17
2022-10-05T19:22:26.310Z,10.03
2022-10-05T19:25:15.673Z,9.60
2022-10-05T19:27:55.471Z,8.27
2022-10-05T19:30:27.229Z,8.73
2022-10-05T19:33:11.149Z,8.97
2022-10-05T19:35:50.778Z,9.20
2022-10-05T19:38:26.518Z,8.87
2022-10-05T19:41:01.243Z,9.73
2022-10-05T19:43:45.699Z,8.53
2022-10-05T19:46:25.307Z,8.43
2022-10-05T19:48:55.800Z,10.23
2022-10-05T19:51:30.431Z,9.20
2022-10-05T19:54:02.115Z,9.13
2022-10-05T19:56:34.698Z,9.10
2022-10-05T19:59:13.593Z,8.80
2022-10-05T20:01:49.300Z,8.63
2022-10-05T20:04:34.142Z,7.70
2022-10-05T20:07:03.273Z,7.17
2022-10-05T20:09:50.194Z,7.03
2022-10-05T20:12:18.341Z,9.27
2022-10-05T20:15:00.342Z,9.77
2022-10-05T20:17:45.788Z,12.00
2022-10-05T20:20:31.930Z,12.60
2022-10-05T20:23:21.956Z,11.70
2022-10-05T20:26:10.757Z,10.30
2022-10-05T20:28:39.303Z,9.93
2022-10-05T20:31:08.258Z,9.17
2022-10-05T20:33:36.421Z,8.30
2022-10-05T20:36:06.165Z,9.23
2022-10-05T20:38:40.577Z,7.30
2022-10-05T20:41:09.428Z,6.80
2022-10-05T20:43:39.270Z,6.60
2022-10-05T20:46:08.071Z,6.77
2022-10-05T20:48:36.567Z,6.87
2022-10-05T20:51:06.307Z,6.90
2022-10-05T20:53:34.675Z,6.07
2022-10-05T20:56:04.417Z,6.40
2022-10-05T20:58:32.587Z,6.40
2022-10-05T21:01:20.004Z,6.43
2022-10-05T21:03:48.429Z,6.63
2022-10-05T21:06:19.026Z,5.83
2022-10-05T21:08:47.210Z,5.33
2022-10-05T21:11:15.550Z,5.30
2022-10-05T21:13:45.321Z,5.40
2022-10-05T21:16:14.131Z,5.80
2022-10-05T21:18:44.362Z,6.57
2022-10-05T21:21:12.579Z,5.77
2022-10-05T21:23:42.138Z,6.10
2022-10-05T21:26:11.733Z,5.87
2022-10-05T21:28:40.234Z,6.13
2022-10-05T21:31:09.357Z,6.30
2022-10-05T21:33:37.814Z,6.70
2022-10-05T21:36:06.276Z,6.13
2022-10-05T21:38:34.385Z,6.53
2022-10-05T21:41:04.176Z,7.80
2022-10-05T21:43:32.619Z,8.07
2022-10-05T21:46:01.345Z,7.47
2022-10-05T21:48:31.519Z,7.80
2022-10-05T21:51:00.595Z,8.30
2022-10-05T21:53:32.348Z,6.70
2022-10-05T21:56:03.072Z,7.17
2022-10-05T21:58:32.948Z,7.53
2022-10-05T22:01:01.077Z,7.60
2022-10-05T22:03:29.469Z,6.20
2022-10-05T22:05:57.780Z,7.07
2022-10-05T22:08:27.440Z,7.07
2022-10-05T22:10:56.122Z,7.03
2022-10-05T22:13:26.102Z,7.37
2022-10-05T22:15:56.808Z,6.87
2022-10-05T22:18:26.961Z,7.23
2022-10-05T22:20:55.410Z,6.60
2022-10-05T22:23:23.501Z,7.07
2022-10-05T22:25:51.656Z,6.67
2022-10-05T22:28:19.931Z,7.13
2022-10-05T22:30:48.212Z,6.77
2022-10-05T22:33:17.788Z,6.37
2022-10-05T22:35:45.925Z,6.43
2022-10-05T22:38:14.062Z,6.77
2022-10-05T22:40:42.168Z,6.93
2022-10-05T22:43:10.339Z,6.87
2022-10-05T22:45:38.590Z,6.93
2022-10-05T22:48:06.793Z,7.33
2022-10-05T22:50:36.450Z,6.53
2022-10-05T22:53:04.623Z,7.00
2022-10-05T22:55:32.704Z,6.93
2022-10-05T22:58:02.585Z,6.20
2022-10-05T23:00:53.438Z,7.50
2022-10-05T23:03:18.913Z,6.80
2022-10-05T23:05:48.361Z,6.60
2022-10-05T23:08:17.098Z,6.90
2022-10-05T23:10:45.194Z,6.83
2022-10-05T23:13:13.291Z,6.47
2022-10-05T23:15:42.373Z,6.63
2022-10-05T23:18:10.484Z,6.50
2022-10-05T23:20:40.162Z,6.50
2022-10-05T23:23:09.635Z,7.00
2022-10-05T23:25:37.796Z,6.40
2022-10-05T23:28:05.942Z,7.00
2022-10-05T23:30:34.106Z,6.87
2022-10-05T23:33:02.224Z,6.20
2022-10-05T23:35:30.339Z,6.33
2022-10-05T23:37:58.588Z,6.43
2022-10-05T23:40:28.098Z,6.50
2022-10-05T23:42:56.349Z,6.63
2022-10-05T23:45:24.461Z,6.47
2022-10-05T23:47:52.599Z,6.40
2022-10-05T23:50:21.468Z,6.37
2022-10-05T23:52:49.659Z,6.57
2022-10-05T23:55:17.863Z,6.17
2022-10-05T23:57:47.356Z,6.70
